Time;durP1;ratioP1;P1;durP2;ratioP2;P2;SDS_P1;SDS_P2;PMS_P1;PMS_P2;Temp;Humidity;BMP_temperature;BMP_pressure;BME280_temperature;BME280_humidity;BME280_pressure;Samples;Min_cycle;Max_cycle;Signal;HPM_P1;HPM_P2
2022/09/13 00:00:52;;;;;;;3.50;3.30;;;14.30;99.90;;;;;;5244995;28;20435;-47
2022/09/13 00:03:23;;;;;;;3.93;3.63;;;14.30;99.90;;;;;;5255202;28;20496;-46
2022/09/13 00:05:55;;;;;;;3.00;2.90;;;14.50;99.90;;;;;;5237367;28;20437;-47
2022/09/13 00:08:26;;;;;;;3.70;3.40;;;14.40;99.90;;;;;;5230727;28;20434;-47
2022/09/13 00:10:56;;;;;;;3.10;2.90;;;14.40;99.90;;;;;;5223480;28;20445;-47
2022/09/13 00:13:27;;;;;;;2.93;2.77;;;14.40;99.90;;;;;;5253046;28;20190;-48
2022/09/13 00:16:00;;;;;;;3.00;2.90;;;14.40;99.90;;;;;;5239292;28;20185;-46
2022/09/13 00:18:30;;;;;;;3.67;3.23;;;14.40;99.90;;;;;;5245808;28;20311;-46
2022/09/13 00:21:07;;;;;;;2.33;2.23;;;14.40;99.90;;;;;;5223664;28;20902;-47
2022/09/13 00:23:38;;;;;;;3.07;2.97;;;14.40;99.90;;;;;;5238308;28;20202;-46
2022/09/13 00:26:13;;;;;;;9.33;2.30;;;14.40;99.90;;;;;;5233635;28;20436;-45
2022/09/13 00:28:46;;;;;;;2.33;2.23;;;14.40;99.90;;;;;;5255797;28;20186;-46
2022/09/13 00:31:18;;;;;;;2.57;2.47;;;14.40;99.90;;;;;;5251737;28;20829;-47
2022/09/13 00:33:49;;;;;;;2.80;2.70;;;14.40;99.90;;;;;;5235056;28;20463;-47
2022/09/13 00:36:20;;;;;;;2.93;2.80;;;14.30;99.90;;;;;;5253060;28;20805;-48
2022/09/13 00:38:50;;;;;;;3.27;3.07;;;14.30;99.90;;;;;;5249420;28;20450;-47
2022/09/13 00:41:21;;;;;;;3.20;3.10;;;14.30;99.90;;;;;;5256701;28;20182;-47
2022/09/13 00:43:53;;;;;;;2.80;2.70;;;14.20;99.90;;;;;;5248824;28;20202;-47
2022/09/13 00:46:39;;;;;;;4.27;3.87;;;14.20;99.90;;;;;;5261060;28;20178;-47
2022/09/13 00:49:44;;;;;;;4.53;4.13;;;14.20;99.90;;;;;;5226463;28;20440;-46
2022/09/13 00:52:18;;;;;;;5.07;4.07;;;14.10;99.90;;;;;;5185265;28;20450;-48
2022/09/13 00:54:59;;;;;;;3.43;3.23;;;14.10;99.90;;;;;;5221246;28;20516;-47
2022/09/13 00:57:32;;;;;;;5.63;4.17;;;14.20;99.90;;;;;;5236072;28;20425;-48
2022/09/13 01:00:17;;;;;;;4.43;2.83;;;14.10;99.90;;;;;;5244269;28;20437;-48
2022/09/13 01:02:56;;;;;;;2.83;2.73;;;14.10;99.90;;;;;;5240459;28;20432;-49
2022/09/13 01:05:35;;;;;;;2.40;2.30;;;14.10;99.90;;;;;;5247994;28;20778;-48
2022/09/13 01:08:14;;;;;;;2.10;2.10;;;14.30;99.90;;;;;;5237743;28;21077;-47
2022/09/13 01:10:48;;;;;;;2.67;2.57;;;14.20;99.90;;;;;;5257115;28;20466;-48
2022/09/13 01:13:21;;;;;;;2.40;2.30;;;14.10;99.90;;;;;;5253389;28;20461;-49
2022/09/13 01:15:52;;;;;;;2.83;2.60;;;14.10;99.90;;;;;;5241590;28;20421;-48
2022/09/13 01:18:23;;;;;;;1.80;1.80;;;14.10;99.90;;;;;;5222191;28;20435;-49
2022/09/13 01:21:24;;;;;;;4.43;3.60;;;14.10;99.90;;;;;;5257942;28;20758;-49
2022/09/13 01:24:31;;;;;;;2.57;2.37;;;14.00;99.90;;;;;;5257947;28;20461;-50
2022/09/13 01:27:20;;;;;;;2.50;2.40;;;14.00;99.90;;;;;;5239086;28;20762;-48
2022/09/13 01:30:10;;;;;;;2.57;2.47;;;14.00;99.90;;;;;;5232439;28;20803;-47
2022/09/13 01:33:04;;;;;;;2.50;2.40;;;14.00;99.90;;;;;;5248722;28;20434;-48
2022/09/13 01:36:13;;;;;;;5.20;2.87;;;14.00;99.90;;;;;;5237058;28;20775;-49
2022/09/13 01:39:01;;;;;;;2.90;2.70;;;13.90;99.90;;;;;;5245481;28;20555;-48
2022/09/13 01:41:34;;;;;;;2.63;2.53;;;13.90;99.90;;;;;;5246903;28;20567;-49
2022/09/13 01:44:23;;;;;;;2.93;2.70;;;13.80;99.90;;;;;;5226936;28;20445;-49
2022/09/13 01:47:21;;;;;;;3.43;2.90;;;13.80;99.90;;;;;;5230253;28;20441;-49
2022/09/13 01:50:01;;;;;;;2.63;2.53;;;13.80;99.90;;;;;;5237800;28;20478;-50
2022/09/13 01:53:09;;;;;;;2.80;2.60;;;13.80;99.90;;;;;;5254560;28;20432;-47
2022/09/13 01:56:03;;;;;;;2.73;2.63;;;13.80;99.90;;;;;;5248720;28;21087;-48
2022/09/13 01:59:08;;;;;;;6.07;3.17;;;13.70;99.90;;;;;;5255067;28;20427;-49
2022/09/13 02:01:45;;;;;;;3.37;3.17;;;13.70;99.90;;;;;;5235843;28;20478;-49
2022/09/13 02:04:24;;;;;;;2.93;2.33;;;13.60;99.90;;;;;;5235880;28;20467;-48
2022/09/13 02:07:04;;;;;;;3.77;3.20;;;13.70;99.90;;;;;;5246193;28;20824;-49
2022/09/13 02:09:40;;;;;;;2.90;2.70;;;13.60;99.90;;;;;;5245966;28;21011;-48
2022/09/13 02:12:18;;;;;;;2.63;2.53;;;13.60;99.90;;;;;;5248931;28;20425;-48
2022/09/13 02:15:03;;;;;;;4.53;2.50;;;13.50;99.90;;;;;;5232227;28;21217;-50
2022/09/13 02:17:53;;;;;;;3.10;2.90;;;13.50;99.90;;;;;;5244014;28;20455;-49
2022/09/13 02:20:32;;;;;;;2.90;2.80;;;13.50;99.90;;;;;;5238688;28;20465;-49
2022/09/13 02:23:09;;;;;;;2.50;2.40;;;13.50;99.90;;;;;;5240893;28;20424;-50
2022/09/13 02:25:40;;;;;;;3.03;2.77;;;13.50;99.90;;;;;;5230354;28;20440;-48
2022/09/13 02:28:14;;;;;;;2.43;2.33;;;13.40;99.90;;;;;;5260554;28;20790;-49
2022/09/13 02:30:50;;;;;;;7.60;2.80;;;13.40;99.90;;;;;;5232827;28;20467;-48
2022/09/13 02:33:25;;;;;;;3.40;3.10;;;13.40;99.90;;;;;;5210832;28;20783;-47
2022/09/13 02:36:08;;;;;;;3.07;3.00;;;13.50;99.90;;;;;;5254837;28;20428;-48
2022/09/13 02:38:47;;;;;;;2.80;2.70;;;13.40;99.90;;;;;;5235212;28;20924;-49
2022/09/13 02:41:29;;;;;;;4.90;2.53;;;13.40;99.90;;;;;;5249208;28;20424;-48
2022/09/13 02:44:10;;;;;;;2.93;2.73;;;13.40;99.90;;;;;;5240229;28;20546;-49
2022/09/13 02:46:44;;;;;;;4.20;3.00;;;13.40;99.90;;;;;;5245197;28;20783;-48
2022/09/13 02:49:37;;;;;;;3.60;3.40;;;13.40;99.90;;;;;;5252077;28;20436;-48
2022/09/13 02:52:16;;;;;;;3.90;3.07;;;13.40;99.90;;;;;;5240289;28;20486;-46
2022/09/13 02:55:06;;;;;;;2.93;2.83;;;13.40;99.90;;;;;;5245999;28;20439;-50
2022/09/13 02:58:01;;;;;;;3.20;2.63;;;13.50;99.90;;;;;;5235171;28;20772;-49
2022/09/13 03:00:32;;;;;;;3.20;3.10;;;13.40;99.90;;;;;;5227533;28;20934;-48
2022/09/13 03:03:07;;;;;;;4.33;3.10;;;13.40;99.90;;;;;;5236033;28;20443;-48
2022/09/13 03:05:37;;;;;;;3.13;2.93;;;13.50;99.90;;;;;;5242434;28;20264;-48
2022/09/13 03:08:10;;;;;;;2.87;2.73;;;13.50;99.90;;;;;;5254701;28;20579;-49
2022/09/13 03:10:53;;;;;;;2.90;2.80;;;13.40;99.90;;;;;;5228711;28;20213;-49
2022/09/13 03:13:54;;;;;;;3.40;3.20;;;13.40;99.90;;;;;;5234133;28;20474;-48
2022/09/13 03:16:32;;;;;;;6.30;2.57;;;13.40;99.90;;;;;;5246420;28;20442;-48
2022/09/13 03:19:24;;;;;;;3.23;2.90;;;13.50;99.90;;;;;;5237950;28;20428;-49
2022/09/13 03:22:07;;;;;;;4.00;2.80;;;13.50;99.90;;;;;;5230481;28;20429;-48
2022/09/13 03:25:20;;;;;;;7.20;3.20;;;13.50;99.90;;;;;;5223771;28;20448;-53
2022/09/13 03:28:34;;;;;;;2.83;2.73;;;13.50;99.90;;;;;;5177185;28;20463;-48
2022/09/13 03:31:07;;;;;;;5.50;3.30;;;13.40;99.90;;;;;;5244721;28;20512;-49
2022/09/13 03:33:51;;;;;;;7.93;2.80;;;13.40;99.90;;;;;;5249201;28;20443;-49
2022/09/13 03:36:40;;;;;;;2.80;2.60;;;13.40;99.90;;;;;;5246197;28;20448;-48
2022/09/13 03:39:13;;;;;;;2.67;2.57;;;13.40;99.90;;;;;;5265065;28;20822;-50
2022/09/13 03:41:50;;;;;;;2.50;2.30;;;13.40;99.90;;;;;;5245114;28;20929;-48
2022/09/13 03:44:23;;;;;;;3.10;3.00;;;13.40;99.90;;;;;;5258162;28;20431;-48
2022/09/13 03:46:59;;;;;;;2.90;2.80;;;13.60;99.90;;;;;;5251856;28;20438;-50
2022/09/13 03:49:30;;;;;;;3.10;2.93;;;13.50;99.90;;;;;;5257472;28;21079;-48
2022/09/13 03:52:01;;;;;;;4.93;3.80;;;13.60;99.90;;;;;;5253167;28;20510;-50
2022/09/13 03:54:36;;;;;;;4.20;3.80;;;13.60;99.90;;;;;;5234277;28;20465;-48
2022/09/13 03:57:17;;;;;;;3.60;3.40;;;13.80;99.90;;;;;;5258673;28;20874;-48
2022/09/13 03:59:57;;;;;;;3.90;3.63;;;13.80;99.90;;;;;;5246464;28;20825;-49
2022/09/13 04:02:28;;;;;;;2.93;2.73;;;13.80;99.90;;;;;;5248580;28;20439;-48
2022/09/13 04:04:58;;;;;;;2.97;2.87;;;13.80;99.90;;;;;;5250044;28;20548;-54
2022/09/13 04:07:29;;;;;;;3.70;3.50;;;13.90;99.90;;;;;;5238320;28;20185;-51
2022/09/13 04:10:00;;;;;;;3.20;3.10;;;13.90;99.90;;;;;;5244994;28;20237;-52
2022/09/13 04:12:30;;;;;;;3.50;3.30;;;13.90;99.90;;;;;;5259768;28;20178;-51
2022/09/13 04:15:01;;;;;;;3.57;3.47;;;13.80;99.90;;;;;;5247814;28;20438;-50
2022/09/13 04:17:31;;;;;;;3.93;3.67;;;14.00;99.90;;;;;;5253251;28;20685;-52
2022/09/13 04:20:03;;;;;;;3.83;3.63;;;14.20;99.90;;;;;;5240326;28;20657;-52
2022/09/13 04:22:34;;;;;;;3.67;3.47;;;14.20;99.90;;;;;;5250183;28;20269;-52
2022/09/13 04:25:05;;;;;;;4.20;3.97;;;14.20;99.90;;;;;;5243543;28;20610;-51
2022/09/13 04:27:36;;;;;;;4.63;3.33;;;14.20;99.90;;;;;;5239523;28;20183;-51
2022/09/13 04:30:07;;;;;;;4.20;3.83;;;14.10;99.90;;;;;;5258401;28;20474;-53
2022/09/13 04:32:38;;;;;;;4.73;4.00;;;14.30;99.90;;;;;;5257271;28;20645;-52
2022/09/13 04:35:08;;;;;;;4.03;3.80;;;14.30;99.90;;;;;;5245502;28;20462;-51
2022/09/13 04:37:39;;;;;;;3.77;3.67;;;14.30;99.90;;;;;;5241389;28;20170;-52
2022/09/13 04:40:10;;;;;;;4.33;4.03;;;14.40;99.90;;;;;;5253863;28;20181;-53
2022/09/13 04:42:43;;;;;;;5.43;4.37;;;14.40;99.90;;;;;;5258159;28;20221;-51
2022/09/13 04:45:14;;;;;;;4.53;4.23;;;14.50;99.90;;;;;;5257988;28;20462;-53
2022/09/13 04:47:53;;;;;;;5.03;3.70;;;14.50;99.90;;;;;;5242622;28;20425;-53
2022/09/13 04:50:24;;;;;;;4.30;4.10;;;14.50;99.90;;;;;;5239348;28;20209;-51
2022/09/13 04:52:55;;;;;;;4.00;3.80;;;14.50;99.90;;;;;;5239166;28;20538;-52
2022/09/13 04:55:26;;;;;;;5.03;4.73;;;14.40;99.90;;;;;;5242596;28;20444;-52
2022/09/13 04:57:56;;;;;;;6.07;4.53;;;14.50;99.90;;;;;;5251516;28;20251;-52
2022/09/13 05:00:27;;;;;;;3.97;3.77;;;14.60;99.90;;;;;;5240805;28;20437;-52
2022/09/13 05:02:57;;;;;;;4.77;4.37;;;14.60;99.90;;;;;;5223479;28;20651;-51
2022/09/13 05:05:30;;;;;;;4.37;4.07;;;14.90;99.90;;;;;;5251274;28;20193;-52
2022/09/13 05:08:01;;;;;;;4.80;4.50;;;14.70;99.90;;;;;;5268898;28;20543;-52
2022/09/13 05:10:32;;;;;;;4.30;4.00;;;14.80;99.90;;;;;;5250334;28;20485;-52
2022/09/13 05:13:03;;;;;;;4.97;4.67;;;14.90;99.90;;;;;;5242850;28;20660;-52
2022/09/13 05:15:33;;;;;;;7.40;4.03;;;14.80;99.90;;;;;;5252939;28;20183;-52
2022/09/13 05:18:04;;;;;;;5.23;4.80;;;14.80;99.90;;;;;;5265201;28;20249;-52
2022/09/13 05:20:34;;;;;;;4.53;4.23;;;15.00;99.90;;;;;;5249487;28;20694;-52
2022/09/13 05:23:05;;;;;;;3.83;3.53;;;15.20;99.90;;;;;;5232046;28;20254;-52
2022/09/13 05:25:35;;;;;;;8.37;5.47;;;15.00;99.90;;;;;;5256361;28;20255;-53
2022/09/13 05:28:06;;;;;;;5.50;4.07;;;15.20;99.90;;;;;;5247847;28;20643;-53
2022/09/13 05:30:37;;;;;;;10.30;4.70;;;15.00;99.90;;;;;;5249738;28;20666;-50
2022/09/13 05:33:07;;;;;;;6.90;4.60;;;14.90;99.90;;;;;;5247893;28;20216;-52
2022/09/13 05:35:40;;;;;;;6.70;4.80;;;14.90;99.90;;;;;;5238351;28;20594;-55
2022/09/13 05:38:10;;;;;;;5.50;5.00;;;15.00;99.90;;;;;;5240346;28;20649;-52
2022/09/13 05:40:41;;;;;;;5.40;5.00;;;14.90;99.90;;;;;;5214176;28;20433;-50
2022/09/13 05:43:12;;;;;;;5.83;5.50;;;14.90;99.90;;;;;;5266092;28;20236;-53
2022/09/13 05:45:42;;;;;;;4.17;3.87;;;14.90;99.90;;;;;;5244193;28;20547;-52
2022/09/13 05:48:13;;;;;;;5.43;4.93;;;14.90;99.90;;;;;;5237742;28;20202;-49
2022/09/13 05:50:44;;;;;;;5.50;5.00;;;14.80;99.90;;;;;;5244698;28;20575;-48
2022/09/13 05:53:14;;;;;;;4.20;3.77;;;14.80;99.90;;;;;;5225936;28;20573;-48
2022/09/13 05:55:45;;;;;;;5.80;4.97;;;14.90;99.90;;;;;;5242114;28;20205;-49
2022/09/13 05:58:15;;;;;;;5.10;4.70;;;14.80;99.90;;;;;;5264427;28;20252;-49
2022/09/13 06:00:53;;;;;;;6.00;5.50;;;14.80;99.90;;;;;;5242221;28;20252;-49
2022/09/13 06:03:24;;;;;;;5.20;4.77;;;14.60;99.90;;;;;;5239582;28;20216;-49
2022/09/13 06:05:56;;;;;;;5.60;5.13;;;14.50;99.90;;;;;;5245967;28;20455;-48
2022/09/13 06:08:28;;;;;;;7.23;5.70;;;14.40;99.90;;;;;;5250948;28;20423;-50
2022/09/13 06:11:07;;;;;;;13.67;6.17;;;14.30;99.90;;;;;;5238999;28;20858;-48
2022/09/13 06:13:38;;;;;;;7.80;6.47;;;14.20;99.90;;;;;;5232397;28;20449;-49
2022/09/13 06:16:11;;;;;;;7.50;6.80;;;14.10;99.90;;;;;;5263147;28;20431;-48
2022/09/13 06:18:42;;;;;;;10.93;7.10;;;14.00;99.90;;;;;;5262807;28;20479;-48
2022/09/13 06:21:16;;;;;;;8.03;6.23;;;14.00;99.90;;;;;;5248925;28;20803;-49
2022/09/13 06:23:52;;;;;;;7.23;6.53;;;14.00;99.90;;;;;;5233741;28;20208;-52
2022/09/13 06:26:27;;;;;;;7.93;7.23;;;14.00;99.90;;;;;;5244373;28;20475;-54
2022/09/13 06:28:57;;;;;;;8.43;7.63;;;14.00;99.90;;;;;;5229503;28;20458;-48
2022/09/13 06:31:28;;;;;;;8.83;7.47;;;13.90;99.90;;;;;;5228374;28;20476;-48
2022/09/13 06:34:03;;;;;;;7.97;7.17;;;13.90;99.90;;;;;;5242029;28;20214;-49
2022/09/13 06:36:34;;;;;;;11.70;8.87;;;13.80;99.90;;;;;;5263193;28;20174;-49
2022/09/13 06:39:05;;;;;;;19.30;9.10;;;13.80;99.90;;;;;;5228961;28;20443;-50
2022/09/13 06:41:36;;;;;;;11.57;8.83;;;13.70;99.90;;;;;;5244577;28;20236;-49
2022/09/13 06:44:11;;;;;;;8.90;8.13;;;13.70;99.90;;;;;;5232506;28;20520;-48
2022/09/13 06:46:42;;;;;;;11.10;8.50;;;13.80;99.90;;;;;;5247683;28;20427;-50
2022/09/13 06:49:12;;;;;;;12.50;8.67;;;13.80;99.90;;;;;;5244688;28;20508;-48
2022/09/13 06:51:43;;;;;;;17.80;11.80;;;14.10;99.90;;;;;;5235470;28;20536;-48
2022/09/13 06:54:13;;;;;;;14.33;9.87;;;14.10;99.90;;;;;;5246675;28;20288;-48
2022/09/13 06:56:44;;;;;;;9.07;8.17;;;14.40;99.90;;;;;;5240172;28;20628;-50
2022/09/13 06:59:14;;;;;;;9.57;7.90;;;14.80;99.90;;;;;;5239230;28;20181;-49
2022/09/13 07:01:45;;;;;;;9.70;8.10;;;14.80;99.90;;;;;;5231689;28;20293;-45
2022/09/13 07:04:21;;;;;;;12.77;8.57;;;15.10;99.90;;;;;;5250979;28;20285;-46
2022/09/13 07:06:51;;;;;;;13.80;10.67;;;15.00;99.90;;;;;;5256489;28;20206;-46
2022/09/13 07:09:22;;;;;;;17.17;10.90;;;15.00;99.90;;;;;;5262024;28;20444;-47
2022/09/13 07:11:54;;;;;;;10.87;9.00;;;14.90;99.90;;;;;;5260879;28;20201;-47
2022/09/13 07:14:27;;;;;;;10.30;7.80;;;14.90;99.90;;;;;;5256678;28;20197;-46
2022/09/13 07:16:59;;;;;;;17.20;9.40;;;15.20;99.90;;;;;;5242857;28;20507;-46
2022/09/13 07:19:30;;;;;;;12.37;11.10;;;15.00;99.90;;;;;;5218972;28;20425;-46
2022/09/13 07:22:00;;;;;;;12.50;10.03;;;14.80;99.90;;;;;;5245223;28;20505;-47
2022/09/13 07:24:31;;;;;;;12.43;9.53;;;14.80;99.90;;;;;;5260359;28;20439;-46
2022/09/13 07:27:01;;;;;;;12.20;8.87;;;14.90;99.90;;;;;;5253250;28;20705;-46
2022/09/13 07:29:32;;;;;;;12.10;9.40;;;14.90;99.90;;;;;;5251666;28;20182;-47
2022/09/13 07:32:02;;;;;;;12.27;9.87;;;15.10;99.90;;;;;;5212479;28;20743;-46
2022/09/13 07:34:33;;;;;;;15.40;11.10;;;15.00;99.90;;;;;;5234004;28;20195;-46
2022/09/13 07:37:03;;;;;;;12.10;8.03;;;15.10;99.90;;;;;;5245039;28;20179;-46
2022/09/13 07:39:34;;;;;;;11.80;9.80;;;15.10;99.90;;;;;;5264643;28;20592;-46
2022/09/13 07:42:05;;;;;;;12.30;9.30;;;15.00;99.90;;;;;;5223223;28;20223;-46
2022/09/13 07:44:35;;;;;;;18.10;9.20;;;15.10;99.90;;;;;;5233100;28;20296;-47
2022/09/13 07:47:06;;;;;;;16.23;9.17;;;15.20;99.90;;;;;;5253391;28;20189;-47
2022/09/13 07:49:37;;;;;;;11.80;9.60;;;15.30;99.90;;;;;;5250957;28;20183;-53
2022/09/13 07:52:07;;;;;;;14.83;10.70;;;15.10;99.90;;;;;;5246996;28;20194;-46
2022/09/13 07:54:38;;;;;;;12.83;9.70;;;15.10;99.90;;;;;;5245084;28;20200;-47
2022/09/13 07:57:08;;;;;;;15.23;12.93;;;15.10;99.90;;;;;;5250168;28;20177;-45
2022/09/13 07:59:39;;;;;;;17.63;11.33;;;15.20;99.90;;;;;;5259133;28;20572;-51
2022/09/13 08:02:09;;;;;;;14.60;11.73;;;15.20;99.90;;;;;;5245140;28;20645;-45
2022/09/13 08:04:40;;;;;;;16.60;11.87;;;15.40;99.90;;;;;;5249063;28;20238;-47
2022/09/13 08:07:11;;;;;;;17.27;13.50;;;15.40;99.90;;;;;;5226556;28;20186;-47
2022/09/13 08:09:41;;;;;;;12.97;11.67;;;15.50;99.90;;;;;;5236304;28;20175;-48
2022/09/13 08:12:12;;;;;;;12.00;10.70;;;15.60;99.90;;;;;;5250308;28;20202;-48
2022/09/13 08:14:42;;;;;;;25.47;9.63;;;15.80;99.90;;;;;;5268481;28;20209;-47
2022/09/13 08:17:13;;;;;;;11.60;8.97;;;16.10;99.90;;;;;;5236342;28;20265;-46
2022/09/13 08:19:44;;;;;;;12.47;8.33;;;16.80;99.90;;;;;;5244379;28;20186;-47
2022/09/13 08:22:14;;;;;;;9.20;8.30;;;17.50;99.90;;;;;;5244551;28;20277;-46
2022/09/13 08:24:45;;;;;;;10.10;8.30;;;17.50;99.90;;;;;;5241641;28;20201;-46
2022/09/13 08:27:15;;;;;;;8.50;7.50;;;17.70;99.90;;;;;;5257947;28;20196;-52
2022/09/13 08:29:46;;;;;;;9.27;8.37;;;17.90;99.90;;;;;;5252152;28;20194;-52
2022/09/13 08:32:16;;;;;;;10.03;7.70;;;17.90;99.90;;;;;;5240536;28;20269;-53
2022/09/13 08:34:47;;;;;;;8.13;7.33;;;17.90;99.90;;;;;;5240376;28;20209;-52
2022/09/13 08:37:17;;;;;;;13.90;7.60;;;17.90;99.90;;;;;;5239971;28;20530;-52
2022/09/13 08:39:48;;;;;;;10.43;7.50;;;18.00;99.90;;;;;;5268297;28;20236;-53
2022/09/13 08:43:02;;;;;;;12.00;8.50;;;17.80;99.90;;;;;;5264340;28;20184;-53
2022/09/13 08:45:32;;;;;;;12.80;7.10;;;17.90;99.90;;;;;;5214765;28;20251;-51
2022/09/13 08:48:15;;;;;;;10.20;7.20;;;18.00;99.90;;;;;;5252021;28;20432;-52
2022/09/13 08:50:50;;;;;;;9.20;6.80;;;18.30;99.90;;;;;;5244222;28;20301;-52
2022/09/13 08:53:29;;;;;;;6.70;6.17;;;18.60;99.90;;;;;;5246125;28;20489;-52
2022/09/13 08:56:37;;;;;;;8.33;7.17;;;19.10;99.90;;;;;;5240867;28;20429;-53
2022/09/13 08:59:29;;;;;;;11.03;7.80;;;19.50;99.90;;;;;;5222648;28;20524;-52
2022/09/13 09:02:21;;;;;;;9.60;6.20;;;19.80;99.90;;;;;;5230480;28;20792;-52
2022/09/13 09:05:16;;;;;;;5.70;5.20;;;20.10;99.90;;;;;;5260298;28;20879;-50
2022/09/13 09:08:01;;;;;;;6.70;6.03;;;20.30;99.90;;;;;;5244304;28;20516;-46
2022/09/13 09:10:37;;;;;;;8.63;6.70;;;20.30;99.90;;;;;;5257973;28;20460;-47
2022/09/13 09:13:25;;;;;;;6.73;5.43;;;20.40;99.90;;;;;;5231157;28;20479;-46
2022/09/13 09:16:10;;;;;;;9.27;6.67;;;20.50;99.90;;;;;;5238749;28;20421;-47
2022/09/13 09:18:46;;;;;;;12.30;6.47;;;20.50;99.90;;;;;;5249108;28;20773;-51
2022/09/13 09:21:18;;;;;;;8.13;5.87;;;20.70;99.90;;;;;;5258192;28;20415;-48
2022/09/13 09:23:53;;;;;;;8.47;6.30;;;20.70;99.90;;;;;;5236583;28;20453;-47
2022/09/13 09:26:27;;;;;;;14.60;7.40;;;20.90;99.90;;;;;;5247365;28;20439;-48
2022/09/13 09:29:00;;;;;;;12.47;5.80;;;21.10;99.90;;;;;;5239700;28;20499;-48
2022/09/13 09:32:11;;;;;;;6.83;5.63;;;21.30;99.90;;;;;;5239801;28;20457;-48
2022/09/13 09:34:56;;;;;;;6.70;6.10;;;21.70;99.90;;;;;;5228838;28;20608;-48
2022/09/13 09:37:30;;;;;;;9.47;6.00;;;21.70;99.90;;;;;;5251276;28;20425;-50
2022/09/13 09:40:06;;;;;;;7.83;5.73;;;21.60;99.90;;;;;;5254997;28;20415;-51
2022/09/13 09:42:48;;;;;;;11.70;6.03;;;21.80;99.90;;;;;;5270745;28;20758;-49
2022/09/13 09:45:30;;;;;;;6.30;5.70;;;21.80;99.90;;;;;;5240372;28;20513;-49
2022/09/13 09:48:08;;;;;;;5.40;5.00;;;21.90;99.90;;;;;;5241621;28;20432;-48
2022/09/13 09:50:46;;;;;;;5.00;4.50;;;22.00;99.90;;;;;;5259820;28;20826;-49
2022/09/13 09:53:28;;;;;;;6.80;5.17;;;22.30;99.90;;;;;;5256170;28;20467;-49
2022/09/13 09:56:02;;;;;;;6.50;5.63;;;22.70;99.90;;;;;;5249827;28;20762;-48
2022/09/13 09:58:38;;;;;;;8.93;5.40;;;22.80;99.90;;;;;;5257401;28;20439;-51
2022/09/13 10:01:33;;;;;;;6.43;4.13;;;22.90;99.90;;;;;;5242855;28;20420;-52
2022/09/13 10:04:09;;;;;;;5.87;5.30;;;22.90;99.90;;;;;;5231220;28;20461;-51
2022/09/13 10:06:42;;;;;;;10.00;5.33;;;22.80;99.90;;;;;;5268512;28;20476;-51
2022/09/13 10:09:12;;;;;;;6.23;5.63;;;22.90;99.90;;;;;;5240700;28;20512;-50
2022/09/13 10:11:57;;;;;;;9.33;5.87;;;22.80;99.90;;;;;;5242235;28;20542;-53
2022/09/13 10:14:40;;;;;;;6.10;5.57;;;22.70;99.90;;;;;;5238642;28;20234;-53
2022/09/13 10:17:15;;;;;;;11.37;8.00;;;22.40;99.90;;;;;;5247635;28;20476;-52
2022/09/13 10:19:55;;;;;;;7.20;5.50;;;22.20;99.90;;;;;;5260930;28;20500;-51
2022/09/13 10:22:27;;;;;;;5.87;5.33;;;22.20;99.90;;;;;;5243743;28;20436;-52
2022/09/13 10:25:20;;;;;;;5.80;5.03;;;22.30;99.90;;;;;;5267849;28;20420;-52
2022/09/13 10:27:54;;;;;;;4.83;4.43;;;22.50;99.90;;;;;;5255414;28;20420;-52
2022/09/13 10:30:44;;;;;;;9.70;5.97;;;22.70;99.90;;;;;;5238492;28;20460;-50
2022/09/13 10:33:24;;;;;;;5.50;4.20;;;22.80;99.90;;;;;;5231341;28;20502;-53
2022/09/13 10:36:00;;;;;;;4.37;4.07;;;23.00;99.90;;;;;;5226045;28;20427;-53
2022/09/13 10:38:35;;;;;;;6.03;5.47;;;23.00;99.90;;;;;;5258949;28;20450;-53
2022/09/13 10:41:10;;;;;;;9.63;7.10;;;23.00;99.90;;;;;;5253937;28;20504;-53
2022/09/13 10:43:40;;;;;;;6.13;5.53;;;22.80;99.90;;;;;;5218136;28;20456;-53
2022/09/13 10:46:14;;;;;;;13.00;8.00;;;22.70;99.90;;;;;;5225119;28;20948;-54
2022/09/13 10:48:54;;;;;;;6.17;5.57;;;22.50;99.90;;;;;;5250759;28;20677;-54
2022/09/13 10:51:25;;;;;;;5.40;5.00;;;22.10;99.90;;;;;;5250698;28;20458;-53
2022/09/13 10:54:08;;;;;;;5.40;4.90;;;22.00;99.90;;;;;;5250296;28;20461;-52
2022/09/13 10:56:39;;;;;;;11.63;7.43;;;21.90;99.90;;;;;;5254736;28;20649;-53
2022/09/13 10:59:28;;;;;;;29.13;11.20;;;21.80;99.90;;;;;;5250203;28;20416;-54
2022/09/13 11:02:17;;;;;;;13.30;8.50;;;21.70;99.90;;;;;;5249121;28;20187;-52
2022/09/13 11:05:21;;;;;;;9.17;5.87;;;21.60;99.90;;;;;;5230179;28;20461;-53
2022/09/13 11:08:12;;;;;;;7.73;6.80;;;21.40;99.90;;;;;;5247866;28;20435;-54
2022/09/13 11:10:55;;;;;;;17.70;7.90;;;21.10;99.90;;;;;;5239538;28;20465;-52
2022/09/13 11:13:53;;;;;;;11.30;7.77;;;20.90;99.90;;;;;;5260995;28;20513;-51
2022/09/13 11:16:39;;;;;;;8.43;6.87;;;20.70;99.90;;;;;;5237989;28;20428;-54
2022/09/13 11:19:30;;;;;;;6.97;6.10;;;20.50;99.90;;;;;;5230672;28;20935;-53
2022/09/13 11:22:19;;;;;;;15.70;8.57;;;20.40;99.90;;;;;;5248787;28;20906;-52
2022/09/13 11:24:55;;;;;;;7.10;6.40;;;20.30;99.90;;;;;;5249384;28;20436;-53
2022/09/13 11:28:07;;;;;;;8.03;6.67;;;20.20;99.90;;;;;;5230071;28;20428;-53
2022/09/13 11:31:00;;;;;;;11.37;7.80;;;20.20;99.90;;;;;;5247927;28;20581;-52
2022/09/13 11:33:52;;;;;;;12.77;9.43;;;20.20;99.90;;;;;;5256785;28;20460;-52
2022/09/13 11:36:43;;;;;;;12.43;7.30;;;20.20;99.90;;;;;;5227494;28;20441;-52
2022/09/13 11:39:37;;;;;;;8.50;7.60;;;20.20;99.90;;;;;;5245309;28;20436;-53
2022/09/13 11:42:23;;;;;;;7.43;6.70;;;20.10;99.90;;;;;;5227896;28;20523;-53
2022/09/13 11:45:20;;;;;;;10.13;7.33;;;20.10;99.90;;;;;;5235097;28;20461;-52
2022/09/13 11:47:57;;;;;;;10.20;8.90;;;20.00;99.90;;;;;;5226728;28;20519;-54
2022/09/13 11:50:27;;;;;;;13.00;7.20;;;20.00;99.90;;;;;;5265725;28;20865;-53
2022/09/13 11:53:37;;;;;;;8.00;6.70;;;19.90;99.90;;;;;;5236559;28;20491;-52
2022/09/13 11:56:21;;;;;;;15.27;9.67;;;19.80;99.90;;;;;;5255817;28;20203;-54
2022/09/13 11:58:58;;;;;;;14.23;10.50;;;19.70;99.90;;;;;;5239210;28;21035;-53
2022/09/13 12:01:36;;;;;;;30.30;17.17;;;19.70;99.90;;;;;;5246451;28;20958;-53
2022/09/13 12:04:25;;;;;;;12.17;8.40;;;19.70;99.90;;;;;;5255714;28;20454;-52
2022/09/13 12:07:00;;;;;;;7.23;6.50;;;19.60;99.90;;;;;;5230417;28;20427;-55
2022/09/13 12:09:37;;;;;;;12.77;8.50;;;19.60;99.90;;;;;;5234395;28;20527;-53
2022/09/13 12:12:11;;;;;;;20.40;8.60;;;19.60;99.90;;;;;;5247111;28;20568;-52
2022/09/13 12:14:58;;;;;;;13.07;7.40;;;19.50;99.90;;;;;;5242384;28;20795;-53
2022/09/13 12:17:38;;;;;;;11.73;8.97;;;19.40;99.90;;;;;;5238189;28;20417;-54
2022/09/13 12:20:23;;;;;;;14.03;9.30;;;19.30;99.90;;;;;;5228082;28;20429;-53
2022/09/13 12:22:54;;;;;;;9.37;8.20;;;19.30;99.90;;;;;;5217337;28;20452;-54
2022/09/13 12:25:38;;;;;;;17.13;12.00;;;19.20;99.90;;;;;;5230676;28;20420;-53
2022/09/13 12:28:18;;;;;;;16.67;9.90;;;19.10;99.90;;;;;;5242409;28;20431;-52
2022/09/13 12:30:59;;;;;;;20.27;14.23;;;19.10;99.90;;;;;;5246642;28;20467;-52
2022/09/13 12:33:29;;;;;;;14.87;10.90;;;18.90;99.90;;;;;;5236178;28;20880;-52
2022/09/13 12:36:00;;;;;;;12.30;10.53;;;18.90;99.90;;;;;;5247650;28;20432;-53
2022/09/13 12:38:42;;;;;;;12.50;9.17;;;19.00;99.90;;;;;;5251508;28;20256;-53
2022/09/13 12:41:31;;;;;;;11.77;9.30;;;19.30;99.90;;;;;;5239943;28;20186;-52
2022/09/13 12:44:33;;;;;;;10.63;8.23;;;19.60;99.90;;;;;;5239225;28;20465;-53
2022/09/13 12:47:21;;;;;;;11.90;8.50;;;19.80;99.90;;;;;;5243760;28;20443;-52
2022/09/13 12:50:30;;;;;;;8.70;7.80;;;20.10;99.90;;;;;;5247652;28;20443;-54
2022/09/13 12:53:18;;;;;;;13.70;7.90;;;20.10;99.90;;;;;;5241446;28;20429;-54
2022/09/13 12:56:22;;;;;;;8.37;6.83;;;20.20;99.90;;;;;;5218656;28;20421;-55
2022/09/13 12:59:19;;;;;;;13.37;7.20;;;20.30;99.90;;;;;;5217021;28;20421;-54
2022/09/13 13:01:51;;;;;;;13.00;7.97;;;20.40;99.90;;;;;;5228711;28;20426;-52
2022/09/13 13:04:26;;;;;;;8.70;7.57;;;20.30;99.90;;;;;;5251646;28;20542;-52
2022/09/13 13:07:07;;;;;;;17.10;6.90;;;20.10;99.90;;;;;;5234607;28;20526;-52
2022/09/13 13:09:55;;;;;;;6.13;5.40;;;20.00;99.90;;;;;;5252718;28;20451;-53
2022/09/13 13:12:33;;;;;;;7.83;5.27;;;20.20;99.90;;;;;;5230616;28;20432;-53
2022/09/13 13:15:23;;;;;;;9.50;6.00;;;20.20;99.90;;;;;;5253850;28;20443;-55
2022/09/13 13:17:54;;;;;;;5.47;4.40;;;20.40;99.90;;;;;;5246883;28;20425;-53
2022/09/13 13:20:43;;;;;;;7.20;6.50;;;20.40;99.90;;;;;;5252841;28;20952;-51
2022/09/13 13:23:23;;;;;;;5.13;4.80;;;20.50;99.90;;;;;;5243314;28;20205;-54
2022/09/13 13:26:17;;;;;;;5.70;5.13;;;20.40;99.90;;;;;;5263613;28;20437;-53
2022/09/13 13:28:50;;;;;;;6.63;5.57;;;20.20;99.90;;;;;;5236216;28;20944;-50
2022/09/13 13:31:26;;;;;;;6.40;5.63;;;20.10;99.90;;;;;;5251605;28;20457;-52
2022/09/13 13:34:07;;;;;;;3.97;3.77;;;19.80;99.90;;;;;;5246313;28;20473;-52
2022/09/13 13:36:40;;;;;;;5.10;4.63;;;19.60;99.90;;;;;;5238072;28;20539;-53
2022/09/13 13:39:25;;;;;;;5.80;5.20;;;19.70;99.90;;;;;;5235315;28;20430;-54